sensor_id;sensor_type;location;lat;lon;timestamp;P1;durP1;ratioP1;P2;durP2;ratioP2
17414;SDS011;8825;48.086;16.426;2023-03-01T00:01:14;20.80;;;17.52;;
17414;SDS011;8825;48.086;16.426;2023-03-01T00:03:42;19.17;;;17.05;;
17414;SDS011;8825;48.086;16.426;2023-03-01T00:06:10;20.80;;;17.15;;
17414;SDS011;8825;48.086;16.426;2023-03-01T00:08:38;20.10;;;17.60;;
17414;SDS011;8825;48.086;16.426;2023-03-01T00:11:19;21.40;;;17.27;;
17414;SDS011;8825;48.086;16.426;2023-03-01T00:13:50;21.02;;;18.23;;
17414;SDS011;8825;48.086;16.426;2023-03-01T00:16:23;25.00;;;18.75;;
17414;SDS011;8825;48.086;16.426;2023-03-01T00:18:55;23.25;;;20.20;;
17414;SDS011;8825;48.086;16.426;2023-03-01T00:21:23;24.30;;;18.82;;
17414;SDS011;8825;48.086;16.426;2023-03-01T00:23:52;21.52;;;17.98;;
17414;SDS011;8825;48.086;16.426;2023-03-01T00:26:21;21.90;;;17.67;;
17414;SDS011;8825;48.086;16.426;2023-03-01T00:28:49;20.70;;;17.57;;
17414;SDS011;8825;48.086;16.426;2023-03-01T00:31:19;22.87;;;18.20;;
17414;SDS011;8825;48.086;16.426;2023-03-01T00:33:48;19.25;;;17.20;;
17414;SDS011;8825;48.086;16.426;2023-03-01T00:36:29;22.25;;;18.35;;
17414;SDS011;8825;48.086;16.426;2023-03-01T00:38:55;21.75;;;17.35;;
17414;SDS011;8825;48.086;16.426;2023-03-01T00:41:22;21.52;;;17.98;;
17414;SDS011;8825;48.086;16.426;2023-03-01T00:43:52;22.37;;;18.82;;
17414;SDS011;8825;48.086;16.426;2023-03-01T00:46:21;22.62;;;18.87;;
17414;SDS011;8825;48.086;16.426;2023-03-01T00:48:50;21.37;;;18.60;;
17414;SDS011;8825;48.086;16.426;2023-03-01T00:51:19;22.82;;;18.98;;
17414;SDS011;8825;48.086;16.426;2023-03-01T00:53:51;22.80;;;18.80;;
17414;SDS011;8825;48.086;16.426;2023-03-01T00:56:20;24.23;;;20.08;;
17414;SDS011;8825;48.086;16.426;2023-03-01T00:58:48;25.70;;;21.57;;
17414;SDS011;8825;48.086;16.426;2023-03-01T01:01:18;23.22;;;20.65;;
17414;SDS011;8825;48.086;16.426;2023-03-01T01:03:48;23.18;;;19.05;;
17414;SDS011;8825;48.086;16.426;2023-03-01T01:06:22;23.40;;;20.10;;
17414;SDS011;8825;48.086;16.426;2023-03-01T01:08:51;23.22;;;19.80;;
17414;SDS011;8825;48.086;16.426;2023-03-01T01:11:21;20.50;;;17.60;;
17414;SDS011;8825;48.086;16.426;2023-03-01T01:13:50;19.27;;;16.55;;
17414;SDS011;8825;48.086;16.426;2023-03-01T01:16:19;18.52;;;16.57;;
17414;SDS011;8825;48.086;16.426;2023-03-01T01:18:48;18.73;;;16.32;;
17414;SDS011;8825;48.086;16.426;2023-03-01T01:21:17;18.40;;;15.72;;
17414;SDS011;8825;48.086;16.426;2023-03-01T01:23:46;18.05;;;15.72;;
17414;SDS011;8825;48.086;16.426;2023-03-01T01:26:18;17.65;;;15.78;;
17414;SDS011;8825;48.086;16.426;2023-03-01T01:28:50;21.17;;;17.20;;
17414;SDS011;8825;48.086;16.426;2023-03-01T01:31:19;18.62;;;16.45;;
17414;SDS011;8825;48.086;16.426;2023-03-01T01:33:49;15.35;;;13.68;;
17414;SDS011;8825;48.086;16.426;2023-03-01T01:36:18;16.90;;;15.18;;
17414;SDS011;8825;48.086;16.426;2023-03-01T01:38:46;17.50;;;15.00;;
17414;SDS011;8825;48.086;16.426;2023-03-01T01:41:14;19.77;;;17.67;;
17414;SDS011;8825;48.086;16.426;2023-03-01T01:43:46;23.75;;;17.55;;
17414;SDS011;8825;48.086;16.426;2023-03-01T01:46:38;22.05;;;18.12;;
17414;SDS011;8825;48.086;16.426;2023-03-01T01:49:01;21.10;;;18.77;;
17414;SDS011;8825;48.086;16.426;2023-03-01T01:51:40;19.55;;;17.30;;
17414;SDS011;8825;48.086;16.426;2023-03-01T01:54:24;22.00;;;18.15;;
17414;SDS011;8825;48.086;16.426;2023-03-01T01:56:41;23.55;;;19.12;;
17414;SDS011;8825;48.086;16.426;2023-03-01T01:59:11;24.23;;;20.45;;
17414;SDS011;8825;48.086;16.426;2023-03-01T02:01:39;21.42;;;19.23;;
17414;SDS011;8825;48.086;16.426;2023-03-01T02:04:06;21.82;;;18.90;;
17414;SDS011;8825;48.086;16.426;2023-03-01T02:06:36;21.87;;;18.48;;
17414;SDS011;8825;48.086;16.426;2023-03-01T02:09:07;25.85;;;20.30;;
17414;SDS011;8825;48.086;16.426;2023-03-01T02:11:35;22.90;;;19.62;;
17414;SDS011;8825;48.086;16.426;2023-03-01T02:14:04;22.22;;;18.82;;
17414;SDS011;8825;48.086;16.426;2023-03-01T02:16:31;22.52;;;19.98;;
17414;SDS011;8825;48.086;16.426;2023-03-01T02:19:00;21.42;;;17.62;;
17414;SDS011;8825;48.086;16.426;2023-03-01T02:21:38;19.73;;;17.62;;
17414;SDS011;8825;48.086;16.426;2023-03-01T02:24:26;19.95;;;17.02;;
17414;SDS011;8825;48.086;16.426;2023-03-01T02:27:08;19.67;;;17.52;;
17414;SDS011;8825;48.086;16.426;2023-03-01T02:29:37;21.25;;;18.52;;
17414;SDS011;8825;48.086;16.426;2023-03-01T02:32:05;21.40;;;19.10;;
17414;SDS011;8825;48.086;16.426;2023-03-01T02:34:33;25.90;;;19.12;;
17414;SDS011;8825;48.086;16.426;2023-03-01T02:37:02;20.55;;;17.85;;
17414;SDS011;8825;48.086;16.426;2023-03-01T02:40:06;22.90;;;18.98;;
17414;SDS011;8825;48.086;16.426;2023-03-01T02:42:13;23.07;;;19.15;;
17414;SDS011;8825;48.086;16.426;2023-03-01T02:44:42;21.42;;;18.35;;
17414;SDS011;8825;48.086;16.426;2023-03-01T02:47:10;20.97;;;18.67;;
17414;SDS011;8825;48.086;16.426;2023-03-01T02:49:37;26.65;;;19.07;;
17414;SDS011;8825;48.086;16.426;2023-03-01T02:54:52;22.42;;;19.32;;
17414;SDS011;8825;48.086;16.426;2023-03-01T02:57:31;22.45;;;19.05;;
17414;SDS011;8825;48.086;16.426;2023-03-01T03:00:06;22.93;;;17.77;;
17414;SDS011;8825;48.086;16.426;2023-03-01T03:02:32;22.55;;;17.57;;
17414;SDS011;8825;48.086;16.426;2023-03-01T03:05:08;20.40;;;18.20;;
17414;SDS011;8825;48.086;16.426;2023-03-01T03:07:38;20.37;;;17.82;;
17414;SDS011;8825;48.086;16.426;2023-03-01T03:10:09;20.90;;;18.15;;
17414;SDS011;8825;48.086;16.426;2023-03-01T03:12:41;20.10;;;17.80;;
17414;SDS011;8825;48.086;16.426;2023-03-01T03:15:10;19.65;;;17.60;;
17414;SDS011;8825;48.086;16.426;2023-03-01T03:17:38;21.25;;;18.80;;
17414;SDS011;8825;48.086;16.426;2023-03-01T03:20:08;21.05;;;18.57;;
17414;SDS011;8825;48.086;16.426;2023-03-01T03:22:38;21.55;;;19.25;;
17414;SDS011;8825;48.086;16.426;2023-03-01T03:25:07;22.55;;;19.00;;
17414;SDS011;8825;48.086;16.426;2023-03-01T03:27:37;21.48;;;19.17;;
17414;SDS011;8825;48.086;16.426;2023-03-01T03:30:06;20.20;;;18.05;;
17414;SDS011;8825;48.086;16.426;2023-03-01T03:32:36;20.75;;;18.55;;
17414;SDS011;8825;48.086;16.426;2023-03-01T03:35:05;20.60;;;18.40;;
17414;SDS011;8825;48.086;16.426;2023-03-01T03:37:40;23.12;;;19.45;;
17414;SDS011;8825;48.086;16.426;2023-03-01T03:40:26;21.52;;;17.62;;
17414;SDS011;8825;48.086;16.426;2023-03-01T03:42:56;20.95;;;18.40;;
17414;SDS011;8825;48.086;16.426;2023-03-01T03:45:23;22.35;;;19.12;;
17414;SDS011;8825;48.086;16.426;2023-03-01T03:47:51;23.22;;;18.10;;
17414;SDS011;8825;48.086;16.426;2023-03-01T03:50:18;20.97;;;18.32;;
17414;SDS011;8825;48.086;16.426;2023-03-01T03:52:46;22.65;;;19.07;;
17414;SDS011;8825;48.086;16.426;2023-03-01T03:55:14;22.48;;;18.52;;
17414;SDS011;8825;48.086;16.426;2023-03-01T03:57:43;23.57;;;19.40;;
17414;SDS011;8825;48.086;16.426;2023-03-01T04:00:11;22.93;;;20.40;;
17414;SDS011;8825;48.086;16.426;2023-03-01T04:02:39;26.00;;;20.37;;
17414;SDS011;8825;48.086;16.426;2023-03-01T04:05:08;23.02;;;20.25;;
17414;SDS011;8825;48.086;16.426;2023-03-01T04:07:37;24.37;;;21.62;;
17414;SDS011;8825;48.086;16.426;2023-03-01T04:10:05;25.45;;;21.70;;
17414;SDS011;8825;48.086;16.426;2023-03-01T04:12:37;24.32;;;21.07;;
17414;SDS011;8825;48.086;16.426;2023-03-01T04:15:06;23.92;;;20.60;;
17414;SDS011;8825;48.086;16.426;2023-03-01T04:17:40;29.05;;;23.00;;
17414;SDS011;8825;48.086;16.426;2023-03-01T04:20:09;27.58;;;21.62;;
17414;SDS011;8825;48.086;16.426;2023-03-01T04:22:38;25.32;;;21.45;;
17414;SDS011;8825;48.086;16.426;2023-03-01T04:25:07;26.70;;;22.45;;
17414;SDS011;8825;48.086;16.426;2023-03-01T04:27:35;28.90;;;22.85;;
17414;SDS011;8825;48.086;16.426;2023-03-01T04:30:03;28.47;;;22.58;;
17414;SDS011;8825;48.086;16.426;2023-03-01T04:32:31;28.95;;;22.95;;
17414;SDS011;8825;48.086;16.426;2023-03-01T04:34:59;31.50;;;24.02;;
17414;SDS011;8825;48.086;16.426;2023-03-01T04:37:27;32.65;;;24.35;;
17414;SDS011;8825;48.086;16.426;2023-03-01T04:39:55;29.52;;;23.60;;
17414;SDS011;8825;48.086;16.426;2023-03-01T04:42:23;27.27;;;22.40;;
17414;SDS011;8825;48.086;16.426;2023-03-01T04:44:50;27.40;;;22.40;;
17414;SDS011;8825;48.086;16.426;2023-03-01T04:47:18;29.12;;;23.30;;
17414;SDS011;8825;48.086;16.426;2023-03-01T04:49:45;30.02;;;23.45;;
17414;SDS011;8825;48.086;16.426;2023-03-01T04:52:13;30.23;;;24.57;;
17414;SDS011;8825;48.086;16.426;2023-03-01T04:54:40;28.20;;;23.27;;
17414;SDS011;8825;48.086;16.426;2023-03-01T04:57:09;26.02;;;22.77;;
17414;SDS011;8825;48.086;16.426;2023-03-01T04:59:36;35.35;;;27.25;;
17414;SDS011;8825;48.086;16.426;2023-03-01T05:02:04;37.78;;;28.15;;
17414;SDS011;8825;48.086;16.426;2023-03-01T05:04:31;43.13;;;30.20;;
17414;SDS011;8825;48.086;16.426;2023-03-01T05:06:59;40.05;;;28.85;;
17414;SDS011;8825;48.086;16.426;2023-03-01T05:09:26;38.42;;;27.77;;
17414;SDS011;8825;48.086;16.426;2023-03-01T05:11:54;29.92;;;25.27;;
17414;SDS011;8825;48.086;16.426;2023-03-01T05:14:21;34.03;;;26.37;;
17414;SDS011;8825;48.086;16.426;2023-03-01T05:16:49;31.80;;;26.07;;
17414;SDS011;8825;48.086;16.426;2023-03-01T05:19:16;30.17;;;23.87;;
17414;SDS011;8825;48.086;16.426;2023-03-01T05:21:45;31.65;;;25.43;;
17414;SDS011;8825;48.086;16.426;2023-03-01T05:24:31;31.68;;;26.37;;
17414;SDS011;8825;48.086;16.426;2023-03-01T05:27:01;33.02;;;25.80;;
17414;SDS011;8825;48.086;16.426;2023-03-01T05:29:30;27.80;;;23.57;;
17414;SDS011;8825;48.086;16.426;2023-03-01T05:32:00;25.45;;;22.30;;
17414;SDS011;8825;48.086;16.426;2023-03-01T05:34:29;23.67;;;20.40;;
17414;SDS011;8825;48.086;16.426;2023-03-01T05:36:59;25.05;;;20.90;;
17414;SDS011;8825;48.086;16.426;2023-03-01T05:39:28;25.10;;;20.62;;
17414;SDS011;8825;48.086;16.426;2023-03-01T05:41:57;22.75;;;20.05;;
17414;SDS011;8825;48.086;16.426;2023-03-01T05:44:27;26.27;;;21.90;;
17414;SDS011;8825;48.086;16.426;2023-03-01T05:46:56;24.27;;;21.65;;
17414;SDS011;8825;48.086;16.426;2023-03-01T05:49:24;28.23;;;22.80;;
17414;SDS011;8825;48.086;16.426;2023-03-01T05:51:52;29.70;;;24.00;;
17414;SDS011;8825;48.086;16.426;2023-03-01T05:54:20;29.35;;;23.32;;
17414;SDS011;8825;48.086;16.426;2023-03-01T05:56:48;25.85;;;21.97;;
17414;SDS011;8825;48.086;16.426;2023-03-01T05:59:16;26.75;;;21.42;;
17414;SDS011;8825;48.086;16.426;2023-03-01T06:01:43;27.27;;;22.27;;
17414;SDS011;8825;48.086;16.426;2023-03-01T06:04:11;28.57;;;23.55;;
17414;SDS011;8825;48.086;16.426;2023-03-01T06:06:38;28.40;;;23.67;;
17414;SDS011;8825;48.086;16.426;2023-03-01T06:09:06;26.87;;;23.20;;
17414;SDS011;8825;48.086;16.426;2023-03-01T06:11:35;30.35;;;24.52;;
17414;SDS011;8825;48.086;16.426;2023-03-01T06:14:03;27.60;;;23.15;;
17414;SDS011;8825;48.086;16.426;2023-03-01T06:16:33;29.70;;;23.85;;
17414;SDS011;8825;48.086;16.426;2023-03-01T06:19:00;25.90;;;22.48;;
17414;SDS011;8825;48.086;16.426;2023-03-01T06:21:28;27.85;;;22.35;;
17414;SDS011;8825;48.086;16.426;2023-03-01T06:23:55;29.45;;;23.73;;
17414;SDS011;8825;48.086;16.426;2023-03-01T06:26:23;28.90;;;23.38;;
17414;SDS011;8825;48.086;16.426;2023-03-01T06:28:51;27.20;;;23.00;;
17414;SDS011;8825;48.086;16.426;2023-03-01T06:31:18;30.90;;;24.15;;
17414;SDS011;8825;48.086;16.426;2023-03-01T06:33:46;29.67;;;23.65;;
17414;SDS011;8825;48.086;16.426;2023-03-01T06:36:13;27.02;;;22.70;;
17414;SDS011;8825;48.086;16.426;2023-03-01T06:38:42;26.48;;;22.70;;
17414;SDS011;8825;48.086;16.426;2023-03-01T06:41:10;29.55;;;22.73;;
17414;SDS011;8825;48.086;16.426;2023-03-01T06:43:37;29.90;;;23.90;;
17414;SDS011;8825;48.086;16.426;2023-03-01T06:46:05;27.37;;;23.38;;
17414;SDS011;8825;48.086;16.426;2023-03-01T06:48:33;31.25;;;24.87;;
17414;SDS011;8825;48.086;16.426;2023-03-01T06:51:01;31.73;;;26.37;;
17414;SDS011;8825;48.086;16.426;2023-03-01T06:53:29;34.92;;;26.97;;
17414;SDS011;8825;48.086;16.426;2023-03-01T06:55:56;32.98;;;27.02;;
17414;SDS011;8825;48.086;16.426;2023-03-01T06:58:26;30.90;;;24.87;;
17414;SDS011;8825;48.086;16.426;2023-03-01T07:00:54;29.70;;;24.77;;
17414;SDS011;8825;48.086;16.426;2023-03-01T07:03:21;30.75;;;26.75;;
17414;SDS011;8825;48.086;16.426;2023-03-01T07:05:49;31.20;;;23.92;;
17414;SDS011;8825;48.086;16.426;2023-03-01T07:08:20;31.97;;;26.12;;
17414;SDS011;8825;48.086;16.426;2023-03-01T07:10:47;33.90;;;27.40;;
17414;SDS011;8825;48.086;16.426;2023-03-01T07:13:15;29.77;;;24.47;;
17414;SDS011;8825;48.086;16.426;2023-03-01T07:15:42;32.10;;;25.37;;
17414;SDS011;8825;48.086;16.426;2023-03-01T07:18:10;31.05;;;24.05;;
17414;SDS011;8825;48.086;16.426;2023-03-01T07:20:37;31.57;;;26.52;;
17414;SDS011;8825;48.086;16.426;2023-03-01T07:23:05;30.48;;;25.30;;
17414;SDS011;8825;48.086;16.426;2023-03-01T07:25:33;33.08;;;27.40;;
17414;SDS011;8825;48.086;16.426;2023-03-01T07:28:00;32.98;;;26.68;;
17414;SDS011;8825;48.086;16.426;2023-03-01T07:30:28;31.30;;;25.82;;
17414;SDS011;8825;48.086;16.426;2023-03-01T07:32:56;30.45;;;26.20;;
17414;SDS011;8825;48.086;16.426;2023-03-01T07:35:25;32.30;;;25.62;;
17414;SDS011;8825;48.086;16.426;2023-03-01T07:37:53;35.13;;;28.35;;
17414;SDS011;8825;48.086;16.426;2023-03-01T07:40:21;33.05;;;27.70;;
17414;SDS011;8825;48.086;16.426;2023-03-01T07:42:48;32.80;;;25.57;;
17414;SDS011;8825;48.086;16.426;2023-03-01T07:45:18;33.18;;;26.87;;
17414;SDS011;8825;48.086;16.426;2023-03-01T07:47:45;34.38;;;26.23;;
17414;SDS011;8825;48.086;16.426;2023-03-01T07:50:13;30.62;;;25.57;;
17414;SDS011;8825;48.086;16.426;2023-03-01T07:52:41;30.45;;;25.43;;
17414;SDS011;8825;48.086;16.426;2023-03-01T07:55:09;35.92;;;27.75;;
17414;SDS011;8825;48.086;16.426;2023-03-01T07:57:37;33.13;;;26.48;;
17414;SDS011;8825;48.086;16.426;2023-03-01T08:00:05;35.98;;;27.13;;
17414;SDS011;8825;48.086;16.426;2023-03-01T08:02:34;33.75;;;27.10;;
17414;SDS011;8825;48.086;16.426;2023-03-01T08:05:02;33.18;;;27.22;;
17414;SDS011;8825;48.086;16.426;2023-03-01T08:07:29;43.00;;;31.52;;
17414;SDS011;8825;48.086;16.426;2023-03-01T08:09:57;36.80;;;29.60;;
17414;SDS011;8825;48.086;16.426;2023-03-01T08:12:24;36.42;;;28.42;;
17414;SDS011;8825;48.086;16.426;2023-03-01T08:14:54;32.35;;;27.13;;
17414;SDS011;8825;48.086;16.426;2023-03-01T08:17:22;33.00;;;27.80;;
17414;SDS011;8825;48.086;16.426;2023-03-01T08:19:50;38.35;;;28.57;;
17414;SDS011;8825;48.086;16.426;2023-03-01T08:22:17;33.85;;;27.35;;
17414;SDS011;8825;48.086;16.426;2023-03-01T08:24:46;38.65;;;30.57;;
17414;SDS011;8825;48.086;16.426;2023-03-01T08:27:14;37.53;;;28.25;;
17414;SDS011;8825;48.086;16.426;2023-03-01T08:29:42;38.20;;;29.37;;
17414;SDS011;8825;48.086;16.426;2023-03-01T08:32:10;34.55;;;27.58;;
17414;SDS011;8825;48.086;16.426;2023-03-01T08:34:37;38.88;;;30.72;;
17414;SDS011;8825;48.086;16.426;2023-03-01T08:37:05;33.67;;;27.73;;
17414;SDS011;8825;48.086;16.426;2023-03-01T08:39:32;37.53;;;30.52;;
17414;SDS011;8825;48.086;16.426;2023-03-01T08:42:00;35.55;;;28.62;;
17414;SDS011;8825;48.086;16.426;2023-03-01T08:44:27;38.55;;;29.57;;
17414;SDS011;8825;48.086;16.426;2023-03-01T08:46:55;33.30;;;27.13;;
17414;SDS011;8825;48.086;16.426;2023-03-01T08:49:23;32.40;;;27.75;;
17414;SDS011;8825;48.086;16.426;2023-03-01T08:51:50;37.23;;;28.90;;
17414;SDS011;8825;48.086;16.426;2023-03-01T08:54:19;31.33;;;27.30;;
17414;SDS011;8825;48.086;16.426;2023-03-01T08:56:48;36.90;;;28.27;;
17414;SDS011;8825;48.086;16.426;2023-03-01T08:59:16;33.08;;;27.45;;
17414;SDS011;8825;48.086;16.426;2023-03-01T09:01:44;37.30;;;28.50;;
17414;SDS011;8825;48.086;16.426;2023-03-01T09:04:12;33.78;;;28.12;;
17414;SDS011;8825;48.086;16.426;2023-03-01T09:06:41;33.40;;;26.75;;
17414;SDS011;8825;48.086;16.426;2023-03-01T09:09:13;34.10;;;26.40;;
17414;SDS011;8825;48.086;16.426;2023-03-01T09:11:42;34.05;;;26.73;;
17414;SDS011;8825;48.086;16.426;2023-03-01T09:14:12;35.85;;;28.57;;
17414;SDS011;8825;48.086;16.426;2023-03-01T09:16:40;34.83;;;28.32;;
17414;SDS011;8825;48.086;16.426;2023-03-01T09:19:07;31.50;;;26.00;;
17414;SDS011;8825;48.086;16.426;2023-03-01T09:21:35;32.43;;;26.93;;
17414;SDS011;8825;48.086;16.426;2023-03-01T09:24:03;32.65;;;26.25;;
17414;SDS011;8825;48.086;16.426;2023-03-01T09:26:31;29.45;;;24.50;;
17414;SDS011;8825;48.086;16.426;2023-03-01T09:28:59;30.47;;;24.50;;
17414;SDS011;8825;48.086;16.426;2023-03-01T09:31:26;30.20;;;26.77;;
17414;SDS011;8825;48.086;16.426;2023-03-01T09:33:54;31.00;;;25.77;;
17414;SDS011;8825;48.086;16.426;2023-03-01T09:36:22;28.80;;;24.73;;
17414;SDS011;8825;48.086;16.426;2023-03-01T09:38:54;29.27;;;24.57;;
17414;SDS011;8825;48.086;16.426;2023-03-01T09:44:27;35.87;;;28.37;;
17414;SDS011;8825;48.086;16.426;2023-03-01T09:47:03;30.10;;;24.97;;
17414;SDS011;8825;48.086;16.426;2023-03-01T09:49:33;29.63;;;25.60;;
17414;SDS011;8825;48.086;16.426;2023-03-01T09:52:11;30.27;;;23.73;;
17414;SDS011;8825;48.086;16.426;2023-03-01T09:54:45;37.73;;;26.93;;
17414;SDS011;8825;48.086;16.426;2023-03-01T09:57:20;33.20;;;24.77;;
17414;SDS011;8825;48.086;16.426;2023-03-01T10:00:13;30.23;;;24.43;;
17414;SDS011;8825;48.086;16.426;2023-03-01T10:02:45;27.60;;;24.37;;
17414;SDS011;8825;48.086;16.426;2023-03-01T10:05:21;24.27;;;21.43;;
17414;SDS011;8825;48.086;16.426;2023-03-01T10:10:39;27.87;;;22.53;;
17414;SDS011;8825;48.086;16.426;2023-03-01T10:13:16;26.23;;;22.13;;
17414;SDS011;8825;48.086;16.426;2023-03-01T10:16:00;25.63;;;21.97;;
17414;SDS011;8825;48.086;16.426;2023-03-01T10:18:26;26.80;;;22.00;;
17414;SDS011;8825;48.086;16.426;2023-03-01T10:20:59;23.20;;;18.77;;
17414;SDS011;8825;48.086;16.426;2023-03-01T10:23:30;23.60;;;20.03;;
17414;SDS011;8825;48.086;16.426;2023-03-01T10:26:06;24.30;;;19.47;;
17414;SDS011;8825;48.086;16.426;2023-03-01T10:31:37;23.43;;;19.73;;
17414;SDS011;8825;48.086;16.426;2023-03-01T10:34:07;21.90;;;19.50;;
17414;SDS011;8825;48.086;16.426;2023-03-01T10:36:36;23.00;;;18.93;;
17414;SDS011;8825;48.086;16.426;2023-03-01T10:39:16;21.17;;;17.43;;
17414;SDS011;8825;48.086;16.426;2023-03-01T10:41:53;21.50;;;18.07;;
17414;SDS011;8825;48.086;16.426;2023-03-01T10:44:35;19.87;;;16.43;;
17414;SDS011;8825;48.086;16.426;2023-03-01T10:47:23;22.93;;;20.37;;
17414;SDS011;8825;48.086;16.426;2023-03-01T10:49:57;21.37;;;18.13;;
17414;SDS011;8825;48.086;16.426;2023-03-01T10:52:36;20.53;;;18.33;;
17414;SDS011;8825;48.086;16.426;2023-03-01T10:55:25;21.87;;;19.40;;
17414;SDS011;8825;48.086;16.426;2023-03-01T10:57:54;26.40;;;20.43;;
17414;SDS011;8825;48.086;16.426;2023-03-01T11:00:34;23.30;;;20.27;;
17414;SDS011;8825;48.086;16.426;2023-03-01T11:03:10;20.83;;;18.60;;
17414;SDS011;8825;48.086;16.426;2023-03-01T11:05:50;20.30;;;18.10;;
17414;SDS011;8825;48.086;16.426;2023-03-01T11:08:36;19.20;;;17.20;;
17414;SDS011;8825;48.086;16.426;2023-03-01T11:11:19;21.53;;;19.13;;
17414;SDS011;8825;48.086;16.426;2023-03-01T11:13:53;23.37;;;19.37;;
17414;SDS011;8825;48.086;16.426;2023-03-01T11:16:22;21.33;;;18.30;;
17414;SDS011;8825;48.086;16.426;2023-03-01T11:18:56;18.87;;;16.87;;
17414;SDS011;8825;48.086;16.426;2023-03-01T11:21:26;18.23;;;16.17;;
17414;SDS011;8825;48.086;16.426;2023-03-01T11:23:57;17.83;;;16.00;;
17414;SDS011;8825;48.086;16.426;2023-03-01T11:26:28;17.70;;;15.37;;
17414;SDS011;8825;48.086;16.426;2023-03-01T11:28:58;16.83;;;14.93;;
17414;SDS011;8825;48.086;16.426;2023-03-01T11:31:28;18.30;;;14.60;;
17414;SDS011;8825;48.086;16.426;2023-03-01T11:33:58;18.40;;;14.87;;
17414;SDS011;8825;48.086;16.426;2023-03-01T11:42:00;16.37;;;14.53;;
17414;SDS011;8825;48.086;16.426;2023-03-01T11:44:30;16.67;;;14.87;;
17414;SDS011;8825;48.086;16.426;2023-03-01T11:47:11;16.80;;;14.70;;
17414;SDS011;8825;48.086;16.426;2023-03-01T11:55:39;15.03;;;13.43;;
17414;SDS011;8825;48.086;16.426;2023-03-01T12:06:32;14.10;;;12.47;;
17414;SDS011;8825;48.086;16.426;2023-03-01T12:12:11;14.90;;;12.87;;
17414;SDS011;8825;48.086;16.426;2023-03-01T12:25:35;20.27;;;15.30;;
17414;SDS011;8825;48.086;16.426;2023-03-01T12:28:26;17.23;;;15.43;;
17414;SDS011;8825;48.086;16.426;2023-03-01T12:41:40;15.63;;;14.00;;
17414;SDS011;8825;48.086;16.426;2023-03-01T12:49:26;18.50;;;15.70;;
17414;SDS011;8825;48.086;16.426;2023-03-01T12:52:15;17.07;;;15.20;;
17414;SDS011;8825;48.086;16.426;2023-03-01T12:54:50;16.80;;;14.77;;
17414;SDS011;8825;48.086;16.426;2023-03-01T12:57:26;15.77;;;14.07;;
17414;SDS011;8825;48.086;16.426;2023-03-01T13:03:00;18.00;;;16.07;;
17414;SDS011;8825;48.086;16.426;2023-03-01T13:08:20;15.07;;;13.47;;
17414;SDS011;8825;48.086;16.426;2023-03-01T13:10:54;20.87;;;15.23;;
17414;SDS011;8825;48.086;16.426;2023-03-01T13:13:23;16.23;;;14.53;;
17414;SDS011;8825;48.086;16.426;2023-03-01T13:15:52;16.03;;;14.33;;
17414;SDS011;8825;48.086;16.426;2023-03-01T13:20:58;20.37;;;16.20;;
17414;SDS011;8825;48.086;16.426;2023-03-01T13:23:31;16.20;;;14.50;;
17414;SDS011;8825;48.086;16.426;2023-03-01T13:28:56;17.50;;;14.50;;
17414;SDS011;8825;48.086;16.426;2023-03-01T13:33:57;16.23;;;14.40;;
17414;SDS011;8825;48.086;16.426;2023-03-01T13:39:25;14.60;;;13.00;;
17414;SDS011;8825;48.086;16.426;2023-03-01T13:57:48;15.73;;;13.37;;
17414;SDS011;8825;48.086;16.426;2023-03-01T14:00:30;13.73;;;12.23;;
17414;SDS011;8825;48.086;16.426;2023-03-01T14:03:02;13.97;;;12.47;;
17414;SDS011;8825;48.086;16.426;2023-03-01T14:05:32;14.87;;;13.37;;
17414;SDS011;8825;48.086;16.426;2023-03-01T14:08:02;14.07;;;12.57;;
17414;SDS011;8825;48.086;16.426;2023-03-01T14:10:47;14.10;;;12.57;;
17414;SDS011;8825;48.086;16.426;2023-03-01T14:21:45;15.67;;;11.87;;
17414;SDS011;8825;48.086;16.426;2023-03-01T14:24:17;14.37;;;12.87;;
17414;SDS011;8825;48.086;16.426;2023-03-01T14:26:47;16.33;;;13.53;;
17414;SDS011;8825;48.086;16.426;2023-03-01T14:29:26;16.47;;;13.83;;
17414;SDS011;8825;48.086;16.426;2023-03-01T14:32:02;18.07;;;14.47;;
17414;SDS011;8825;48.086;16.426;2023-03-01T14:34:26;16.03;;;13.50;;
17414;SDS011;8825;48.086;16.426;2023-03-01T14:36:53;15.33;;;13.70;;
17414;SDS011;8825;48.086;16.426;2023-03-01T14:39:26;15.20;;;13.60;;
17414;SDS011;8825;48.086;16.426;2023-03-01T14:41:52;14.47;;;12.97;;
17414;SDS011;8825;48.086;16.426;2023-03-01T14:44:21;16.40;;;13.80;;
17414;SDS011;8825;48.086;16.426;2023-03-01T14:46:54;14.60;;;13.00;;
17414;SDS011;8825;48.086;16.426;2023-03-01T14:49:26;15.40;;;13.73;;
17414;SDS011;8825;48.086;16.426;2023-03-01T14:52:00;14.07;;;12.37;;
17414;SDS011;8825;48.086;16.426;2023-03-01T14:54:36;14.27;;;12.77;;
17414;SDS011;8825;48.086;16.426;2023-03-01T14:57:03;15.97;;;13.63;;
17414;SDS011;8825;48.086;16.426;2023-03-01T14:59:32;16.80;;;15.10;;
17414;SDS011;8825;48.086;16.426;2023-03-01T15:02:00;16.27;;;14.57;;
17414;SDS011;8825;48.086;16.426;2023-03-01T15:04:28;16.17;;;14.57;;
17414;SDS011;8825;48.086;16.426;2023-03-01T15:06:57;17.00;;;15.07;;
17414;SDS011;8825;48.086;16.426;2023-03-01T15:09:27;20.30;;;16.60;;
17414;SDS011;8825;48.086;16.426;2023-03-01T15:11:54;18.00;;;16.10;;
17414;SDS011;8825;48.086;16.426;2023-03-01T15:15:18;17.73;;;15.87;;
17414;SDS011;8825;48.086;16.426;2023-03-01T15:17:54;18.00;;;16.03;;
17414;SDS011;8825;48.086;16.426;2023-03-01T15:19:55;18.20;;;15.90;;
17414;SDS011;8825;48.086;16.426;2023-03-01T15:22:23;19.57;;;17.23;;
17414;SDS011;8825;48.086;16.426;2023-03-01T15:24:52;17.67;;;15.77;;
17414;SDS011;8825;48.086;16.426;2023-03-01T15:27:22;16.23;;;14.60;;
17414;SDS011;8825;48.086;16.426;2023-03-01T15:29:58;19.40;;;14.80;;
17414;SDS011;8825;48.086;16.426;2023-03-01T15:32:33;16.93;;;15.13;;
17414;SDS011;8825;48.086;16.426;2023-03-01T15:34:59;16.13;;;13.87;;
17414;SDS011;8825;48.086;16.426;2023-03-01T15:40:21;18.33;;;15.83;;
17414;SDS011;8825;48.086;16.426;2023-03-01T15:43:02;18.07;;;16.00;;
17414;SDS011;8825;48.086;16.426;2023-03-01T15:45:32;15.97;;;14.27;;
17414;SDS011;8825;48.086;16.426;2023-03-01T15:48:04;16.80;;;15.03;;
17414;SDS011;8825;48.086;16.426;2023-03-01T15:50:42;15.67;;;14.03;;
17414;SDS011;8825;48.086;16.426;2023-03-01T15:53:12;15.83;;;14.13;;
17414;SDS011;8825;48.086;16.426;2023-03-01T15:55:41;22.07;;;16.80;;
17414;SDS011;8825;48.086;16.426;2023-03-01T15:58:10;19.17;;;16.03;;
17414;SDS011;8825;48.086;16.426;2023-03-01T16:00:46;18.23;;;16.40;;
17414;SDS011;8825;48.086;16.426;2023-03-01T16:03:17;16.60;;;14.80;;
17414;SDS011;8825;48.086;16.426;2023-03-01T16:05:46;18.07;;;15.53;;
17414;SDS011;8825;48.086;16.426;2023-03-01T16:08:14;20.57;;;15.13;;
17414;SDS011;8825;48.086;16.426;2023-03-01T16:10:42;17.83;;;15.53;;
17414;SDS011;8825;48.086;16.426;2023-03-01T16:13:11;17.40;;;15.60;;
17414;SDS011;8825;48.086;16.426;2023-03-01T16:15:39;18.63;;;16.30;;
17414;SDS011;8825;48.086;16.426;2023-03-01T16:18:07;18.93;;;15.70;;
17414;SDS011;8825;48.086;16.426;2023-03-01T16:20:36;16.27;;;14.60;;
17414;SDS011;8825;48.086;16.426;2023-03-01T16:23:05;16.90;;;14.57;;
17414;SDS011;8825;48.086;16.426;2023-03-01T16:25:34;15.90;;;14.30;;